createdAt,value
2023-02-12T00:00:51.876Z,67.77
2023-02-12T00:03:18.521Z,72.97
2023-02-12T00:05:45.483Z,66.20
2023-02-12T00:08:12.180Z,76.37
2023-02-12T00:10:43.606Z,79.60
2023-02-12T00:13:11.015Z,84.90
2023-02-12T00:15:42.364Z,68.93
2023-02-12T00:18:10.097Z,66.50
2023-02-12T00:20:37.933Z,63.80
2023-02-12T00:23:05.162Z,72.93
2023-02-12T00:25:31.776Z,71.17
2023-02-12T00:27:58.371Z,74.60
2023-02-12T00:30:24.931Z,71.50
2023-02-12T00:32:51.532Z,69.90
2023-02-12T00:35:18.172Z,73.83
2023-02-12T00:37:44.681Z,65.77
2023-02-12T00:40:11.581Z,71.77
2023-02-12T00:42:38.087Z,83.57
2023-02-12T00:45:04.805Z,65.53
2023-02-12T00:47:31.580Z,77.90
2023-02-12T00:49:58.044Z,80.87
2023-02-12T00:52:24.545Z,71.50
2023-02-12T00:54:51.084Z,75.77
2023-02-12T00:57:17.555Z,72.53
2023-02-12T00:59:44.062Z,70.47
2023-02-12T01:02:10.625Z,65.60
2023-02-12T01:04:37.240Z,67.67
2023-02-12T01:07:03.772Z,70.67
2023-02-12T01:09:30.326Z,65.87
2023-02-12T01:11:56.846Z,67.00
2023-02-12T01:14:23.348Z,68.03
2023-02-12T01:16:50.120Z,68.10
2023-02-12T01:19:16.896Z,72.23
2023-02-12T01:21:43.776Z,82.63
2023-02-12T01:24:10.571Z,71.30
2023-02-12T01:26:37.214Z,69.90
2023-02-12T01:29:05.509Z,74.10
2023-02-12T01:31:34.462Z,69.13
2023-02-12T01:34:01.606Z,78.43
2023-02-12T01:36:29.453Z,74.10
2023-02-12T01:38:57.848Z,74.97
2023-02-12T01:41:26.924Z,78.90
2023-02-12T01:44:13.604Z,69.80
2023-02-12T01:46:41.421Z,72.60
2023-02-12T01:49:20.066Z,67.60
2023-02-12T01:51:47.889Z,65.63
2023-02-12T01:54:17.346Z,79.00
2023-02-12T01:56:43.902Z,70.77
2023-02-12T01:59:11.157Z,70.13
2023-02-12T02:01:38.252Z,83.63
2023-02-12T02:04:11.835Z,62.73
2023-02-12T02:06:44.577Z,63.83
2023-02-12T02:09:11.491Z,69.03
2023-02-12T02:11:56.585Z,73.03
2023-02-12T02:14:35.351Z,71.27
2023-02-12T02:17:20.992Z,73.30
2023-02-12T02:20:18.499Z,65.27
2023-02-12T02:23:22.796Z,65.87
2023-02-12T02:26:27.005Z,66.93
2023-02-12T02:29:28.326Z,60.13
2023-02-12T02:31:57.886Z,68.97
2023-02-12T02:34:41.339Z,67.20
2023-02-12T02:37:46.855Z,67.83
2023-02-12T02:40:18.795Z,62.47
2023-02-12T02:43:04.193Z,64.57
2023-02-12T02:45:38.333Z,65.30
2023-02-12T02:48:08.444Z,61.93
2023-02-12T02:50:36.340Z,66.20
2023-02-12T02:53:06.759Z,66.90
2023-02-12T02:55:38.842Z,64.43
2023-02-12T02:58:10.701Z,69.47
2023-02-12T03:01:14.874Z,60.13
2023-02-12T03:03:50.426Z,60.73
2023-02-12T03:06:31.007Z,61.33
2023-02-12T03:09:01.817Z,64.07
2023-02-12T03:11:31.084Z,56.30
2023-02-12T03:14:26.167Z,65.07
2023-02-12T03:16:58.580Z,64.50
2023-02-12T03:19:41.708Z,67.33
2023-02-12T03:22:14.764Z,65.83
2023-02-12T03:24:48.643Z,63.63
2023-02-12T03:27:20.460Z,66.97
2023-02-12T03:29:47.610Z,62.97
2023-02-12T03:32:20.035Z,59.87
2023-02-12T03:35:06.816Z,67.30
2023-02-12T03:37:36.381Z,55.63
2023-02-12T03:40:12.109Z,57.43
2023-02-12T03:42:44.719Z,63.13
2023-02-12T03:45:19.950Z,64.23
2023-02-12T03:47:49.038Z,62.53
2023-02-12T03:50:27.304Z,62.73
2023-02-12T03:52:54.001Z,63.93
2023-02-12T03:55:20.463Z,60.23
2023-02-12T03:57:50.672Z,60.83
2023-02-12T04:00:21.285Z,64.03
2023-02-12T04:02:48.018Z,64.90
2023-02-12T04:05:20.376Z,64.47
2023-02-12T04:07:46.921Z,62.97
2023-02-12T04:10:14.096Z,57.07
2023-02-12T04:12:45.108Z,58.97
2023-02-12T04:15:14.681Z,64.23
2023-02-12T04:17:50.469Z,66.17
2023-02-12T04:20:38.805Z,63.90
2023-02-12T04:23:22.919Z,65.47
2023-02-12T04:25:52.534Z,56.37
2023-02-12T04:28:31.326Z,60.27
2023-02-12T04:31:05.474Z,63.63
2023-02-12T04:33:36.206Z,63.67
2023-02-12T04:36:14.588Z,71.23
2023-02-12T04:38:45.404Z,56.60
2023-02-12T04:41:11.934Z,60.97
2023-02-12T04:43:38.531Z,63.47
2023-02-12T04:46:07.329Z,60.90
2023-02-12T04:48:34.846Z,65.67
2023-02-12T04:51:02.097Z,66.63
2023-02-12T04:53:28.689Z,62.87
2023-02-12T04:55:55.855Z,62.90
2023-02-12T04:58:22.655Z,58.70
2023-02-12T05:00:49.116Z,61.43
2023-02-12T05:03:15.574Z,59.50
2023-02-12T05:05:42.074Z,63.57
2023-02-12T05:08:08.604Z,62.83
2023-02-12T05:10:35.032Z,61.00
2023-02-12T05:13:01.783Z,54.57
2023-02-12T05:15:28.321Z,55.87
2023-02-12T05:17:54.957Z,59.83
2023-02-12T05:20:21.429Z,58.60
2023-02-12T05:22:52.132Z,58.67
2023-02-12T05:25:18.691Z,58.07
2023-02-12T05:27:45.169Z,60.93
2023-02-12T05:30:12.276Z,62.93
2023-02-12T05:32:38.803Z,52.20
2023-02-12T05:35:05.730Z,58.43
2023-02-12T05:37:34.925Z,58.73
2023-02-12T05:40:01.728Z,64.67
2023-02-12T05:42:29.635Z,54.50
2023-02-12T05:44:56.115Z,61.07
2023-02-12T05:47:22.570Z,58.40
2023-02-12T05:49:48.993Z,57.93
2023-02-12T05:52:15.438Z,56.80
2023-02-12T05:54:41.915Z,56.67
2023-02-12T05:57:08.468Z,53.83
2023-02-12T05:59:35.055Z,56.00
2023-02-12T06:02:01.573Z,51.70
2023-02-12T06:04:28.818Z,57.63
2023-02-12T06:06:55.986Z,51.50
2023-02-12T06:09:23.549Z,56.23
2023-02-12T06:11:50.139Z,57.33
2023-02-12T06:14:18.742Z,53.60
2023-02-12T06:16:47.003Z,59.80
2023-02-12T06:19:13.626Z,50.70
2023-02-12T06:21:40.175Z,53.47
2023-02-12T06:24:07.070Z,52.03
2023-02-12T06:26:33.595Z,54.40
2023-02-12T06:29:01.249Z,54.67
2023-02-12T06:31:28.811Z,56.17
2023-02-12T06:33:59.030Z,55.77
2023-02-12T06:36:25.677Z,51.73
2023-02-12T06:38:52.780Z,56.23
2023-02-12T06:41:21.690Z,51.53
2023-02-12T06:43:48.135Z,56.57
2023-02-12T06:46:15.439Z,60.27
2023-02-12T06:48:42.281Z,55.57
2023-02-12T06:51:12.063Z,56.97
2023-02-12T06:53:39.037Z,48.13
2023-02-12T06:56:11.056Z,53.47
2023-02-12T06:58:39.114Z,50.77
2023-02-12T07:01:13.781Z,53.70
2023-02-12T07:03:41.630Z,53.00
2023-02-12T07:06:09.224Z,53.37
2023-02-12T07:08:35.858Z,60.67
2023-02-12T07:11:02.893Z,54.17
2023-02-12T07:13:29.439Z,55.87
2023-02-12T07:15:56.405Z,49.30
2023-02-12T07:18:23.105Z,48.73
2023-02-12T07:20:49.539Z,54.27
2023-02-12T07:23:16.040Z,50.77
2023-02-12T07:25:42.590Z,53.23
2023-02-12T07:28:09.314Z,47.60
2023-02-12T07:30:35.862Z,45.73
2023-02-12T07:33:02.350Z,57.77
2023-02-12T07:35:28.882Z,47.57
2023-02-12T07:37:55.334Z,49.73
2023-02-12T07:40:21.903Z,51.17
2023-02-12T07:42:53.536Z,53.90
2023-02-12T07:45:20.140Z,46.80
2023-02-12T07:47:46.648Z,49.90
2023-02-12T07:50:13.141Z,45.93
2023-02-12T07:52:39.604Z,48.07
2023-02-12T07:55:06.985Z,45.97
2023-02-12T07:57:35.036Z,54.10
2023-02-12T08:00:01.648Z,49.40
2023-02-12T08:02:28.259Z,44.33
2023-02-12T08:04:58.908Z,49.80
2023-02-12T08:07:25.642Z,48.80
2023-02-12T08:09:52.197Z,47.10
2023-02-12T08:12:18.796Z,51.97
2023-02-12T08:14:45.310Z,50.07
2023-02-12T08:17:12.227Z,52.07
2023-02-12T08:19:38.840Z,47.20
2023-02-12T08:22:06.531Z,54.43
2023-02-12T08:24:33.330Z,51.43
2023-02-12T08:26:59.903Z,51.30
2023-02-12T08:29:29.412Z,53.70
2023-02-12T08:31:59.439Z,54.73
2023-02-12T08:34:29.206Z,52.17
2023-02-12T08:36:56.357Z,48.13
2023-02-12T08:39:25.016Z,59.90
2023-02-12T08:41:52.032Z,60.77
2023-02-12T08:44:18.677Z,49.73
2023-02-12T08:46:50.371Z,52.10
2023-02-12T08:49:22.271Z,51.03
2023-02-12T08:51:51.891Z,48.10
2023-02-12T08:54:24.184Z,50.67
2023-02-12T08:56:54.452Z,48.23
2023-02-12T08:59:20.985Z,44.63
2023-02-12T09:01:50.680Z,51.03
2023-02-12T09:04:23.154Z,44.97
2023-02-12T09:06:50.442Z,49.90
2023-02-12T09:09:17.593Z,47.80
2023-02-12T09:11:44.977Z,47.57
2023-02-12T09:14:14.819Z,57.20
2023-02-12T09:16:42.135Z,47.53
2023-02-12T09:19:10.956Z,41.20
2023-02-12T09:21:37.475Z,45.63
2023-02-12T09:24:04.283Z,47.73
2023-02-12T09:26:31.365Z,44.77
2023-02-12T09:28:58.041Z,48.90
2023-02-12T09:31:27.804Z,46.67
2023-02-12T09:33:57.950Z,44.73
2023-02-12T09:36:25.202Z,43.50
2023-02-12T09:38:53.852Z,44.07
2023-02-12T09:41:45.493Z,46.17
2023-02-12T09:44:39.365Z,39.50
2023-02-12T09:47:11.925Z,41.67
2023-02-12T09:49:50.533Z,40.93
2023-02-12T09:52:22.479Z,34.37
2023-02-12T09:54:49.804Z,40.70
2023-02-12T09:57:29.633Z,38.83
2023-02-12T10:00:08.486Z,44.50
2023-02-12T10:02:39.921Z,42.17
2023-02-12T10:05:15.717Z,41.83
2023-02-12T10:07:57.289Z,41.53
2023-02-12T10:10:45.245Z,44.87
2023-02-12T10:13:20.844Z,43.30
2023-02-12T10:16:10.469Z,39.73
2023-02-12T10:18:43.264Z,35.00
2023-02-12T10:21:25.135Z,40.40
2023-02-12T10:24:06.055Z,34.93
2023-02-12T10:26:46.829Z,34.83
2023-02-12T10:29:17.721Z,32.93
2023-02-12T10:31:47.384Z,33.07
2023-02-12T10:34:26.823Z,39.63
2023-02-12T10:36:59.263Z,37.60
2023-02-12T10:39:33.130Z,33.27
2023-02-12T10:42:04.207Z,33.50
2023-02-12T10:44:32.341Z,35.43
2023-02-12T10:46:58.940Z,34.07
2023-02-12T10:49:25.748Z,35.30
2023-02-12T10:52:12.024Z,36.90
2023-02-12T10:54:46.637Z,32.53
2023-02-12T10:57:30.107Z,31.70
2023-02-12T11:03:58.549Z,30.60
2023-02-12T11:06:27.842Z,27.23
2023-02-12T11:08:54.750Z,28.93
2023-02-12T11:11:28.040Z,31.03
2023-02-12T11:14:03.772Z,30.23
2023-02-12T11:16:35.767Z,28.13
2023-02-12T11:19:08.103Z,25.27
2023-02-12T11:21:36.385Z,23.40
2023-02-12T11:24:22.834Z,27.00
2023-02-12T11:26:49.589Z,23.80
2023-02-12T11:29:26.574Z,23.80
2023-02-12T11:32:05.798Z,24.40
2023-02-12T11:34:32.472Z,29.83
2023-02-12T11:36:59.061Z,29.77
2023-02-12T11:39:35.016Z,27.90
2023-02-12T11:42:16.632Z,27.40
2023-02-12T11:44:48.804Z,26.00
2023-02-12T11:47:24.200Z,27.87
2023-02-12T11:49:57.067Z,24.70
2023-02-12T11:52:26.465Z,23.03
2023-02-12T11:55:00.361Z,20.80
2023-02-12T11:57:49.328Z,23.37
2023-02-12T12:00:26.185Z,22.80
2023-02-12T12:03:14.907Z,37.23
2023-02-12T12:05:46.638Z,22.30
2023-02-12T12:08:28.061Z,22.27
2023-02-12T12:11:11.305Z,22.90
2023-02-12T12:13:44.646Z,24.07
2023-02-12T12:16:38.412Z,25.07
2023-02-12T12:19:49.306Z,25.40
2023-02-12T12:22:23.219Z,23.83
2023-02-12T12:24:56.436Z,20.20
2023-02-12T12:28:05.424Z,23.63
2023-02-12T12:30:51.018Z,22.60
2023-02-12T12:33:49.107Z,27.50
2023-02-12T12:36:27.817Z,23.33
2023-02-12T12:39:07.077Z,21.70
2023-02-12T12:42:18.273Z,29.23
2023-02-12T12:45:21.816Z,23.63
2023-02-12T12:48:17.209Z,23.33
2023-02-12T12:51:04.860Z,22.47
2023-02-12T12:53:53.141Z,21.10
2023-02-12T12:56:25.734Z,23.30
2023-02-12T12:58:55.229Z,19.53
2023-02-12T13:01:42.921Z,19.07
2023-02-12T13:04:12.483Z,20.53
2023-02-12T13:07:07.034Z,20.93
2023-02-12T13:09:53.741Z,20.67
2023-02-12T13:12:41.606Z,21.97
2023-02-12T13:15:56.417Z,20.93
2023-02-12T13:18:35.014Z,24.20
2023-02-12T13:21:19.008Z,24.17
2023-02-12T13:23:58.593Z,27.60
2023-02-12T13:26:33.679Z,21.80
2023-02-12T13:29:12.182Z,23.30
2023-02-12T13:31:49.648Z,24.03
2023-02-12T13:34:17.993Z,22.27
2023-02-12T13:36:45.334Z,23.53
2023-02-12T13:39:24.166Z,22.87
2023-02-12T13:42:07.843Z,20.83
2023-02-12T13:44:46.604Z,21.60
2023-02-12T13:47:20.706Z,21.33
2023-02-12T13:49:52.131Z,23.63
2023-02-12T13:52:44.015Z,22.40
2023-02-12T13:55:19.526Z,22.73
2023-02-12T13:57:46.076Z,22.60
2023-02-12T14:00:50.138Z,24.60
2023-02-12T14:03:16.675Z,26.03
2023-02-12T14:05:43.302Z,21.23
2023-02-12T14:08:37.498Z,22.63
2023-02-12T14:11:08.341Z,25.87
2023-02-12T14:13:49.421Z,24.60
2023-02-12T14:16:31.338Z,22.57
2023-02-12T14:19:35.396Z,23.60
2023-02-12T14:22:06.894Z,21.50
2023-02-12T14:24:36.547Z,20.37
2023-02-12T14:27:19.980Z,27.67
2023-02-12T14:30:05.464Z,24.23
2023-02-12T14:32:50.340Z,20.77
2023-02-12T14:35:26.113Z,23.80
2023-02-12T14:38:03.170Z,26.23
2023-02-12T14:41:41.966Z,25.63
2023-02-12T14:44:19.938Z,26.47
2023-02-12T14:46:52.056Z,29.67
2023-02-12T14:49:25.275Z,25.80
2023-02-12T14:52:07.080Z,22.77
2023-02-12T14:54:48.655Z,25.93
2023-02-12T14:57:40.361Z,26.20
2023-02-12T15:00:27.221Z,24.97
2023-02-12T15:03:07.620Z,24.90
2023-02-12T15:05:40.030Z,24.27
2023-02-12T15:08:16.930Z,26.80
2023-02-12T15:10:50.540Z,29.27
2023-02-12T15:13:43.227Z,23.60
2023-02-12T15:16:17.334Z,27.50
2023-02-12T15:18:54.521Z,25.73
2023-02-12T15:21:24.979Z,25.00
2023-02-12T15:24:09.457Z,24.67
2023-02-12T15:26:48.399Z,21.03
2023-02-12T15:29:31.191Z,24.90
2023-02-12T15:31:59.954Z,52.07
2023-02-12T15:34:30.280Z,36.80
2023-02-12T15:36:58.777Z,31.07
2023-02-12T15:39:25.868Z,23.93
2023-02-12T15:41:52.398Z,35.70
2023-02-12T15:44:24.903Z,24.87
2023-02-12T15:46:59.061Z,24.10
2023-02-12T15:49:36.956Z,28.37
2023-02-12T15:52:34.499Z,22.60
2023-02-12T15:55:05.010Z,25.87
2023-02-12T15:57:32.411Z,24.83
2023-02-12T16:00:07.872Z,23.33
2023-02-12T16:02:34.561Z,22.23
2023-02-12T16:05:02.451Z,20.67
2023-02-12T16:07:33.264Z,25.20
2023-02-12T16:10:00.085Z,24.23
2023-02-12T16:12:30.557Z,21.50
2023-02-12T16:15:00.389Z,22.10
2023-02-12T16:17:35.030Z,24.07
2023-02-12T16:20:25.586Z,23.43
2023-02-12T16:22:52.808Z,26.97
2023-02-12T16:25:22.450Z,25.40
2023-02-12T16:28:07.140Z,32.47
2023-02-12T16:30:42.883Z,36.10
2023-02-12T16:33:35.288Z,27.10
2023-02-12T16:36:27.597Z,27.00
2023-02-12T16:38:56.326Z,27.10
2023-02-12T16:41:32.470Z,24.70
2023-02-12T16:44:02.043Z,24.57
2023-02-12T16:46:31.302Z,27.37
2023-02-12T16:49:00.524Z,23.20
2023-02-12T16:51:32.025Z,29.57
2023-02-12T16:54:00.402Z,28.73
2023-02-12T16:56:29.339Z,30.37
2023-02-12T16:59:00.194Z,28.50
2023-02-12T17:01:29.775Z,24.90
2023-02-12T17:03:57.695Z,29.70
2023-02-12T17:06:26.789Z,25.27
2023-02-12T17:08:53.626Z,29.47
2023-02-12T17:11:20.637Z,29.20
2023-02-12T17:13:49.538Z,28.33
2023-02-12T17:16:29.974Z,27.90
2023-02-12T17:18:57.712Z,31.03
2023-02-12T17:21:32.451Z,29.90
2023-02-12T17:23:59.061Z,28.37
2023-02-12T17:26:26.042Z,25.40
2023-02-12T17:28:52.632Z,28.70
2023-02-12T17:31:20.718Z,26.23
2023-02-12T17:33:48.214Z,28.63
2023-02-12T17:36:14.976Z,29.90
2023-02-12T17:38:41.455Z,28.70
2023-02-12T17:41:11.129Z,23.93
2023-02-12T17:43:38.109Z,22.37
2023-02-12T17:46:17.176Z,29.50
2023-02-12T17:48:43.765Z,22.30
2023-02-12T17:51:11.693Z,23.30
2023-02-12T17:53:39.868Z,22.17
2023-02-12T17:56:11.276Z,23.30
2023-02-12T17:58:38.692Z,21.03
2023-02-12T18:01:10.574Z,20.20
2023-02-12T18:03:37.553Z,21.63
2023-02-12T18:06:04.952Z,24.53
2023-02-12T18:08:31.870Z,22.50
2023-02-12T18:10:59.017Z,26.23
2023-02-12T18:13:25.641Z,24.30
2023-02-12T18:15:52.340Z,19.83
2023-02-12T18:18:19.136Z,22.90
2023-02-12T18:20:45.729Z,27.50
2023-02-12T18:23:12.680Z,22.63
2023-02-12T18:25:43.978Z,24.10
2023-02-12T18:28:11.376Z,20.37
2023-02-12T18:30:39.199Z,20.27
2023-02-12T18:33:06.207Z,20.27
2023-02-12T18:35:33.540Z,19.87
2023-02-12T18:38:00.157Z,21.23
2023-02-12T18:40:26.912Z,19.17
2023-02-12T18:42:53.548Z,23.20
2023-02-12T18:45:21.657Z,18.77
2023-02-12T18:47:48.174Z,20.30
2023-02-12T18:50:14.800Z,19.50
2023-02-12T18:52:41.576Z,19.67
2023-02-12T18:55:08.345Z,19.53
2023-02-12T18:57:34.887Z,22.10
2023-02-12T19:00:02.719Z,23.27
2023-02-12T19:02:29.439Z,21.60
2023-02-12T19:04:55.920Z,24.67
2023-02-12T19:07:22.509Z,18.70
2023-02-12T19:09:49.285Z,21.53
2023-02-12T19:12:15.908Z,21.23
2023-02-12T19:14:42.620Z,19.23
2023-02-12T19:17:09.105Z,25.30
2023-02-12T19:19:35.595Z,20.20
2023-02-12T19:22:02.162Z,19.70
2023-02-12T19:24:40.829Z,19.73
2023-02-12T19:27:12.008Z,21.73
2023-02-12T19:29:38.473Z,19.30
2023-02-12T19:32:05.205Z,19.67
2023-02-12T19:34:31.919Z,21.90
2023-02-12T19:36:58.385Z,20.17
2023-02-12T19:39:24.953Z,21.60
2023-02-12T19:41:51.853Z,22.30
2023-02-12T19:44:21.903Z,25.17
2023-02-12T19:46:49.653Z,25.93
2023-02-12T19:49:19.338Z,26.37
2023-02-12T19:51:46.021Z,23.37
2023-02-12T19:54:14.365Z,18.70
2023-02-12T19:56:41.357Z,23.20
2023-02-12T19:59:08.055Z,23.67
2023-02-12T20:01:35.398Z,20.43
2023-02-12T20:04:02.426Z,20.77
2023-02-12T20:06:35.203Z,21.37
2023-02-12T20:09:02.478Z,22.80
2023-02-12T20:11:31.074Z,21.13
2023-02-12T20:13:58.025Z,23.40
2023-02-12T20:16:31.049Z,21.90
2023-02-12T20:19:10.988Z,20.70
2023-02-12T20:21:37.679Z,23.40
2023-02-12T20:24:05.044Z,21.03
2023-02-12T20:26:32.504Z,19.87
2023-02-12T20:29:00.352Z,22.53
2023-02-12T20:31:29.605Z,21.80
2023-02-12T20:34:04.818Z,23.00
2023-02-12T20:36:33.389Z,23.47
2023-02-12T20:39:00.311Z,27.30
2023-02-12T20:41:27.623Z,24.90
2023-02-12T20:43:54.992Z,21.33
2023-02-12T20:46:22.835Z,25.37
2023-02-12T20:48:49.915Z,26.63
2023-02-12T20:51:18.942Z,25.20
2023-02-12T20:53:46.147Z,23.67
2023-02-12T20:56:15.613Z,23.70
2023-02-12T20:58:44.840Z,24.10
2023-02-12T21:01:17.630Z,29.40
2023-02-12T21:03:44.859Z,24.20
2023-02-12T21:06:12.151Z,27.07
2023-02-12T21:08:39.940Z,25.90
2023-02-12T21:11:12.912Z,24.03
2023-02-12T21:13:39.408Z,25.33
2023-02-12T21:16:07.276Z,32.10
2023-02-12T21:18:33.896Z,27.30
2023-02-12T21:21:24.531Z,25.87
2023-02-12T21:23:56.906Z,21.97
2023-02-12T21:26:26.482Z,23.83
2023-02-12T21:28:54.983Z,23.40
2023-02-12T21:31:27.080Z,26.07
2023-02-12T21:33:55.245Z,23.20
2023-02-12T21:36:33.001Z,29.40
2023-02-12T21:39:01.631Z,29.80
2023-02-12T21:41:30.978Z,25.43
2023-02-12T21:44:02.861Z,23.60
2023-02-12T21:46:29.595Z,23.83
2023-02-12T21:48:56.595Z,27.47
2023-02-12T21:51:28.590Z,26.13
2023-02-12T21:53:57.744Z,26.80
2023-02-12T21:56:25.573Z,28.30
2023-02-12T21:58:52.307Z,29.27
2023-02-12T22:01:21.332Z,28.97
2023-02-12T22:03:47.865Z,30.10
2023-02-12T22:06:15.233Z,27.03
2023-02-12T22:08:42.084Z,30.93
2023-02-12T22:11:10.195Z,30.77
2023-02-12T22:13:37.582Z,31.83
2023-02-12T22:16:20.357Z,29.40
2023-02-12T22:18:48.025Z,26.73
2023-02-12T22:21:16.451Z,31.10
2023-02-12T22:23:43.854Z,27.47
2023-02-12T22:26:14.814Z,31.03
2023-02-12T22:28:44.083Z,28.93
2023-02-12T22:31:12.314Z,34.30
2023-02-12T22:33:39.066Z,28.60
2023-02-12T22:36:08.019Z,29.33
2023-02-12T22:38:38.998Z,35.70
2023-02-12T22:41:06.997Z,29.07
2023-02-12T22:43:35.370Z,28.60
2023-02-12T22:46:02.042Z,35.30
2023-02-12T22:48:29.305Z,28.63
2023-02-12T22:50:56.634Z,30.50
2023-02-12T22:53:24.160Z,31.50
2023-02-12T22:55:51.280Z,32.33
2023-02-12T22:58:18.062Z,32.67
2023-02-12T23:00:44.831Z,30.47
2023-02-12T23:03:11.374Z,28.53
2023-02-12T23:05:38.561Z,31.47
2023-02-12T23:08:06.045Z,28.83
2023-02-12T23:10:32.858Z,29.63
2023-02-12T23:12:59.466Z,32.07
2023-02-12T23:15:26.002Z,28.80
2023-02-12T23:17:52.490Z,33.47
2023-02-12T23:20:19.348Z,24.40
2023-02-12T23:22:46.053Z,25.23
2023-02-12T23:25:12.598Z,21.20
2023-02-12T23:27:39.172Z,27.80
2023-02-12T23:30:06.482Z,28.40
2023-02-12T23:32:33.198Z,22.33
2023-02-12T23:34:59.747Z,22.43
2023-02-12T23:37:26.285Z,27.83
2023-02-12T23:39:52.780Z,22.63
2023-02-12T23:42:19.320Z,23.20
2023-02-12T23:44:46.121Z,25.10
2023-02-12T23:47:12.844Z,24.23
2023-02-12T23:49:39.631Z,22.93
2023-02-12T23:52:06.421Z,26.60
2023-02-12T23:54:32.991Z,24.57
2023-02-12T23:56:59.538Z,23.63
2023-02-12T23:59:26.708Z,22.33
